Latest Weather Observations for Mortlake

IDV60801

Issued at 1:03 pm EST Thursday 25 May 2017 (issued every 30 minutes, with the page automatically refreshed every 10 minutes)

About weather observations | Map of weather stations | Latest weather observations for VIC | Other Formats
Station Details ID: 090176 Name: MORTLAKE RACECOURSE Lat: -38.07 Lon: 142.77 Height: 130.0 m
Data from the previous 72 hours. | See also: Recent months at Mortlake
Date/Time
EST
Temp
°C
App
Temp
°C
Dew
Point
°C
Rel
Hum
%
Delta-T
°C
Wind Press
QNH
hPa
Press
MSL
hPa
Rain since
9am
mm
Dir  Spd
km/h
Gust
km/h
Spd
kts
Gust
kts
25/01:00pm 15.3 11.3 11.9 80 1.8 NW 24 43 13 23 1017.8 1017.9 0.0
25/12:30pm 15.1 10.0 11.9 81 1.7 NW 30 41 16 22 1018.3 1018.4 0.0
25/12:00pm 15.2 11.1 11.4 78 2.0 NW 24 33 13 18 1018.6 1018.7 0.0
25/11:30am 15.1 10.4 10.7 75 2.3 NW 26 37 14 20 1018.9 1019.0 0.0
25/11:00am 15.5 12.1 11.1 75 2.4 NNW 20 30 11 16 1019.1 1019.2 0.0
25/10:30am 14.7 11.1 10.5 76 2.2 NNW 20 26 11 14 1019.3 1019.4 0.0
25/10:00am 14.0 11.3 10.4 79 1.9 NNW 15 19 8 10 1019.3 1019.4 0.0
25/09:30am 13.7 10.9 10.1 79 1.9 NNW 15 20 8 11 1019.4 1019.5 0.0
25/09:00am 13.3 10.6 10.3 82 1.6 NNW 15 19 8 10 1019.2 1019.3 0.0
25/08:30am 12.1 10.1 10.2 88 1.0 N 11 15 6 8 1019.3 1019.4 0.0
25/08:00am 11.4 9.4 10.0 91 0.7 N 11 15 6 8 1019.4 1019.5 0.0
25/07:30am 11.7 9.3 10.1 90 0.8 NNW 13 17 7 9 1019.3 1019.4 0.0
25/07:00am 11.8 9.0 9.9 88 1.0 NNW 15 20 8 11 1019.2 1019.3 0.0
25/06:30am 11.6 8.8 10.0 90 0.8 NNW 15 19 8 10 1019.0 1019.1 0.0
25/06:00am 11.4 9.3 9.8 90 0.8 NNW 11 15 6 8 1019.1 1019.2 0.0
25/05:30am 11.7 8.9 9.9 89 0.9 NNW 15 22 8 12 1019.1 1019.2 0.0
25/05:00am 11.7 8.7 9.4 86 1.2 NNW 15 19 8 10 1019.1 1019.2 0.0
25/04:30am 11.7 9.1 9.4 86 1.2 NNW 13 19 7 10 1019.0 1019.1 0.0
25/04:00am 11.4 9.3 9.7 89 0.9 NNW 11 15 6 8 1018.9 1019.0 0.0
25/03:30am 11.4 8.9 9.7 89 0.9 NNW 13 17 7 9 1019.1 1019.2 0.0
25/03:00am 11.2 9.5 10.0 92 0.6 NNW 9 13 5 7 1019.2 1019.3 0.0
25/02:30am 10.7 9.0 9.9 95 0.4 NW 9 13 5 7 1019.2 1019.3 0.0
25/02:00am 10.3 8.4 9.1 92 0.6 NW 9 13 5 7 1019.1 1019.2 0.0
25/01:30am 11.2 9.6 10.1 93 0.6 NNW 9 11 5 6 1019.2 1019.3 0.0
25/01:00am 11.3 9.6 10.0 92 0.7 NW 9 15 5 8 1019.2 1019.3 0.0
25/12:30am 11.1 9.1 10.3 95 0.4 NW 11 13 6 7 1019.3 1019.4 0.0
25/12:00am 11.1 9.7 10.8 98 0.2 NW 9 11 5 6 1019.6 1019.7 0.0
 
Date/Time
EST
Temp
°C
App
Temp
°C
Dew
Point
°C
Rel
Hum
%
Delta-T
°C
Wind Press
QNH
hPa
Press
MSL
hPa
Rain since
9am
mm
Dir  Spd
km/h
Gust
km/h
Spd
kts
Gust
kts
24/11:30pm 11.0 9.2 11.0 100 0.0 NW 11 15 6 8 1019.7 1019.8 0.0
24/11:00pm 10.9 9.1 10.9 100 0.0 NNW 11 15 6 8 1019.8 1019.9 0.0
24/10:30pm 10.9 9.5 10.9 100 0.0 NNW 9 13 5 7 1019.9 1020.0 0.0
24/10:00pm 11.3 10.0 11.3 100 0.0 NW 9 15 5 8 1019.8 1019.9 0.0
24/09:30pm 11.4 9.4 11.4 100 0.0 WNW 13 20 7 11 1019.9 1020.0 0.0
24/09:00pm 11.4 8.2 11.4 100 0.0 WNW 19 24 10 13 1019.9 1020.0 0.0
24/08:30pm 11.4 10.1 11.4 100 0.0 WNW 9 13 5 7 1020.0 1020.1 0.0
24/08:00pm 11.5 9.5 11.5 100 0.0 NW 13 24 7 13 1019.8 1019.9 0.0
24/07:30pm 10.9 9.5 10.9 100 0.0 WNW 9 11 5 6 1019.6 1019.7 0.0
24/07:00pm 9.5 7.8 8.4 93 0.5 NW 7 9 4 5 1019.4 1019.5 0.0
24/06:30pm 11.7 9.9 9.6 87 1.1 W 9 13 5 7 1019.2 1019.3 0.0
24/06:00pm 12.5 10.1 10.2 86 1.2 WNW 13 20 7 11 1019.0 1019.1 0.0
24/05:30pm 12.8 10.8 10.3 85 1.3 WNW 11 17 6 9 1018.7 1018.8 0.0
24/05:00pm 12.9 11.0 10.4 85 1.3 W 11 17 6 9 1018.5 1018.6 0.0
24/04:30pm 13.5 9.9 9.7 78 2.0 WNW 19 28 10 15 1018.3 1018.4 0.0
24/04:00pm 13.9 11.1 9.9 77 2.1 W 15 28 8 15 1017.9 1018.0 0.0
24/03:30pm 13.9 11.2 9.1 73 2.5 W 13 20 7 11 1017.6 1017.7 0.0
24/03:00pm 14.3 11.0 9.7 74 2.4 WNW 17 24 9 13 1017.4 1017.5 0.0
24/02:30pm 15.0 10.9 8.7 66 3.2 W 20 30 11 16 1017.1 1017.2 0.0
24/02:00pm 14.2 10.6 8.2 67 3.0 W 17 28 9 15 1016.9 1017.0 0.0
24/01:30pm 15.3 12.2 8.8 65 3.3 WSW 15 24 8 13 1016.7 1016.8 0.0
24/01:00pm 15.3 11.2 8.5 64 3.5 W 20 30 11 16 1016.7 1016.8 0.0
24/12:30pm 14.7 10.9 9.1 69 2.9 WSW 19 24 10 13 1016.9 1017.0 0.0
24/12:00pm 14.6 10.7 9.6 72 2.6 WSW 20 33 11 18 1017.1 1017.2 0.0
24/11:30am 13.5 9.5 9.0 74 2.3 W 20 28 11 15 1017.1 1017.2 0.0
24/11:00am 13.2 8.9 9.3 77 2.0 WSW 22 33 12 18 1017.0 1017.1 0.0
24/10:30am 13.5 10.5 10.7 83 1.5 W 17 28 9 15 1016.8 1016.9 0.0
24/10:00am 12.6 9.5 11.5 93 0.6 W 19 30 10 16 1016.6 1016.7 0.0
24/09:30am 11.8 8.8 11.8 100 0.0 WNW 19 24 10 13 1016.1 1016.1 0.0
24/09:00am 11.5 8.7 11.5 100 0.0 WNW 17 22 9 12 1015.7 1015.7 1.4
24/08:30am 10.8 8.2 10.8 100 0.0 WNW 15 20 8 11 1015.4 1015.4 1.4
24/08:00am 10.8 8.2 10.8 100 0.0 WNW 15 20 8 11 1015.0 1015.0 1.4
24/07:30am 10.5 7.8 10.5 100 0.0 WNW 15 20 8 11 1014.6 1014.6 1.4
24/07:00am 10.2 7.8 10.2 100 0.0 WNW 13 19 7 10 1014.2 1014.2 1.4
24/06:30am 10.5 8.2 10.5 100 0.0 NW 13 19 7 10 1013.9 1013.9 1.4
24/06:00am 10.6 8.7 10.6 100 0.0 NW 11 17 6 9 1013.5 1013.6 1.4
24/05:30am 10.1 7.7 10.1 100 0.0 NW 13 19 7 10 1013.1 1013.2 1.4
24/05:00am 10.0 7.6 10.0 100 0.0 NW 13 17 7 9 1012.6 1012.7 1.4
24/04:30am 9.8 6.9 9.8 100 0.0 NW 15 19 8 10 1012.4 1012.5 1.4
24/04:00am 9.5 6.9 9.4 99 0.0 NW 13 15 7 8 1012.4 1012.5 1.4
24/03:30am 10.1 7.2 9.8 98 0.2 NW 15 22 8 12 1012.3 1012.4 1.4
24/03:00am 10.2 7.7 9.6 96 0.3 NW 13 22 7 12 1012.1 1012.2 1.4
24/02:30am 10.5 7.2 9.4 93 0.6 NW 17 22 9 12 1012.0 1012.1 1.4
24/02:00am 11.1 7.4 10.3 95 0.4 NW 20 26 11 14 1012.1 1012.2 1.4
24/01:30am 11.3 7.8 10.8 97 0.3 NW 20 32 11 17 1012.1 1012.2 1.4
24/01:00am 11.1 7.5 10.5 96 0.3 NW 20 26 11 14 1012.4 1012.5 1.4
24/12:30am 10.7 6.6 10.1 96 0.3 NW 22 28 12 15 1012.4 1012.5 1.4
24/12:00am 10.7 6.8 9.6 93 0.6 NNW 20 28 11 15 1012.3 1012.4 1.4
 
Date/Time
EST
Temp
°C
App
Temp
°C
Dew
Point
°C
Rel
Hum
%
Delta-T
°C
Wind Press
QNH
hPa
Press
MSL
hPa
Rain since
9am
mm
Dir  Spd
km/h
Gust
km/h
Spd
kts
Gust
kts
23/11:30pm 11.0 7.9 10.4 96 0.3 NNW 17 22 9 12 1012.5 1012.6 1.4
23/11:00pm 11.1 8.0 10.3 95 0.4 NNW 17 22 9 12 1012.7 1012.8 1.4
23/10:30pm 11.6 9.5 11.3 98 0.2 NNW 13 20 7 11 1013.0 1013.1 1.4
23/10:00pm 11.7 8.2 10.8 94 0.5 NW 20 28 11 15 1013.3 1013.4 1.2
23/09:30pm 11.9 9.1 11.4 97 0.3 NW 17 26 9 14 1013.6 1013.7 0.8
23/09:00pm 11.6 9.4 10.8 95 0.4 NNW 13 17 7 9 1013.2 1013.3 0.8
23/08:30pm 11.9 10.3 10.1 89 0.9 N 9 13 5 7 1013.1 1013.2 0.0
23/08:00pm 11.8 9.6 9.5 86 1.2 N 11 13 6 7 1013.0 1013.1 0.0
23/07:30pm 11.3 9.2 9.7 90 0.8 N 11 13 6 7 1012.9 1013.0 0.0
23/07:00pm 10.4 8.4 8.5 88 0.9 N 9 9 5 5 1012.9 1013.0 0.0
23/06:30pm 10.0 7.8 7.9 87 1.0 N 9 11 5 6 1012.9 1013.0 0.0
23/06:00pm 10.1 7.8 7.5 84 1.3 NNW 9 11 5 6 1013.1 1013.2 0.0
23/05:30pm 11.4 9.3 8.1 80 1.6 NNW 9 11 5 6 1013.1 1013.2 0.0
23/05:00pm 14.3 11.6 9.1 71 2.7 NW 13 17 7 9 1013.1 1013.2 0.0
23/04:30pm 15.8 12.4 9.0 64 3.5 NW 17 24 9 13 1013.0 1013.1 0.0
23/04:00pm 16.6 12.7 8.8 60 4.0 NW 19 24 10 13 1013.0 1013.1 0.0
23/03:30pm 17.0 13.0 8.9 59 4.2 NW 20 26 11 14 1012.9 1013.0 0.0
23/03:00pm 17.2 12.3 8.6 57 4.4 NW 24 32 13 17 1013.0 1013.1 0.0
23/02:30pm 17.1 12.8 9.3 60 4.1 NW 22 28 12 15 1013.2 1013.3 0.0
23/02:00pm 16.3 12.3 9.0 62 3.8 NW 20 28 11 15 1013.4 1013.5 0.0
23/01:30pm 16.8 13.1 10.0 64 3.6 NW 20 28 11 15 1013.9 1013.9 0.0
23/01:00pm 17.1 13.8 11.6 70 3.0 NW 20 28 11 15 1014.3 1014.3 0.0
23/12:30pm 16.5 13.4 12.3 76 2.3 NW 20 30 11 16 1014.9 1014.9 0.0
23/12:00pm 15.7 13.4 11.9 78 2.1 NW 15 20 8 11 1014.9 1014.9 0.0
23/11:30am 15.6 12.8 11.4 76 2.3 NW 17 20 9 11 1015.4 1015.4 0.0
23/11:00am 15.3 13.0 11.9 80 1.9 NW 15 22 8 12 1015.8 1015.8 0.0
23/10:30am 15.3 12.8 12.2 82 1.7 NNW 17 24 9 13 1016.4 1016.5 0.0
23/10:00am 13.2 11.3 11.8 91 0.8 NW 13 19 7 10 1016.5 1016.6 0.0
23/09:30am 12.8 10.3 11.2 90 0.8 NNW 15 19 8 10 1016.4 1016.5 0.0
23/09:00am 13.4 11.6 12.1 92 0.7 NNW 13 17 7 9 1016.6 1016.7 1.6
23/08:30am 12.1 10.9 11.6 97 0.3 NNW 9 13 5 7 1016.4 1016.5 1.6
23/08:00am 11.3 9.5 10.8 97 0.3 N 11 15 6 8 1016.1 1016.1 1.6
23/07:30am 12.1 10.1 11.5 96 0.3 N 13 20 7 11 1016.0 1016.0 1.6
23/07:00am 12.2 9.9 11.6 96 0.3 N 15 19 8 10 1015.8 1015.8 1.6
23/06:30am 12.5 9.8 11.7 95 0.4 N 17 20 9 11 1015.7 1015.7 1.6
23/06:00am 12.5 9.9 11.9 96 0.3 N 17 24 9 13 1015.6 1015.6 1.6
23/05:30am 12.3 9.6 11.8 97 0.3 N 17 20 9 11 1015.3 1015.3 1.6
23/05:00am 12.6 9.4 11.3 92 0.7 N 19 28 10 15 1015.5 1015.5 1.2
23/04:30am 12.7 9.5 11.3 91 0.7 N 19 26 10 14 1015.3 1015.3 1.0
23/04:00am 12.8 10.0 11.2 90 0.8 N 17 24 9 13 1015.2 1015.2 1.0
23/03:30am 12.7 10.2 12.2 97 0.3 N 17 22 9 12 1015.5 1015.5 1.0
23/03:00am 12.8 9.8 12.0 95 0.4 NNE 19 24 10 13 1015.3 1015.3 1.0
23/02:30am 13.2 10.1 11.6 90 0.9 N 19 26 10 14 1016.3 1016.4 0.4
23/02:00am 13.9 12.0 10.5 80 1.8 N 11 19 6 10 1016.5 1016.6 0.0
23/01:30am 14.1 11.8 10.3 78 2.0 NNW 13 20 7 11 1016.3 1016.4 0.0
23/01:00am 14.6 11.8 10.0 74 2.4 NW 15 20 8 11 1016.5 1016.6 0.0
23/12:30am 15.1 11.4 10.1 72 2.6 NNW 20 26 11 14 1016.5 1016.6 0.0
23/12:00am 15.3 9.7 10.3 72 2.6 N 30 39 16 21 1016.4 1016.5 0.0
 
Date/Time
EST
Temp
°C
App
Temp
°C
Dew
Point
°C
Rel
Hum
%
Delta-T
°C
Wind Press
QNH
hPa
Press
MSL
hPa
Rain since
9am
mm
Dir  Spd
km/h
Gust
km/h
Spd
kts
Gust
kts
22/11:30pm 14.8 10.7 10.2 74 2.4 N 22 32 12 17 1015.8 1015.8 0.0
22/11:00pm 15.1 11.4 10.1 72 2.6 N 20 32 11 17 1015.7 1015.7 0.0
22/10:30pm 15.2 11.5 10.2 72 2.6 N 20 28 11 15 1016.1 1016.1 0.0
22/10:00pm 15.5 11.1 10.3 71 2.7 N 24 37 13 20 1015.8 1015.8 0.0
22/09:30pm 15.5 11.5 10.3 71 2.8 N 22 30 12 16 1015.8 1015.8 0.0
22/09:00pm 15.7 11.3 10.5 71 2.8 N 24 32 13 17 1016.1 1016.1 0.0
22/08:30pm 15.8 11.8 10.6 71 2.8 N 22 32 12 17 1015.7 1015.7 0.0
22/08:00pm 15.7 12.7 10.5 71 2.8 NNE 17 24 9 13 1015.5 1015.5 0.0
22/07:30pm 16.1 12.7 10.4 69 3.0 N 19 26 10 14 1015.7 1015.7 0.0
22/07:00pm 16.3 13.2 10.4 68 3.1 N 17 24 9 13 1015.0 1015.0 0.0
22/06:30pm 16.3 12.6 10.2 67 3.2 N 20 28 11 15 1015.5 1015.5 0.0
22/06:00pm 16.8 13.4 10.6 67 3.3 N 19 24 10 13 1015.5 1015.5 0.0
22/05:30pm 17.4 13.4 10.3 63 3.8 N 22 32 12 17 1015.3 1015.3 0.0
22/05:00pm 17.6 13.6 10.5 63 3.8 NNW 22 28 12 15 1015.4 1015.4 0.0
22/04:30pm 18.4 12.8 10.3 59 4.4 N 30 43 16 23 1015.2 1015.2 0.0
22/04:00pm 19.2 15.0 11.0 59 4.5 N 24 35 13 19 1015.0 1015.0 0.0
22/03:30pm 18.1 14.6 11.0 63 3.9 N 20 32 11 17 1015.3 1015.3 0.0
22/03:00pm 18.2 12.1 10.3 60 4.2 N 33 46 18 25 1015.2 1015.2 0.0
22/02:50pm 19.7 13.9 10.7 56 4.9 N 32 50 17 27 1015.1 1015.1 0.0
22/02:30pm 19.4 13.4 10.9 58 4.7 N 33 44 18 24 1015.3 1015.3 0.0
22/02:00pm 19.3 12.9 10.6 57 4.7 N 35 48 19 26 1015.4 1015.4 0.0
22/01:30pm 18.4 12.6 10.8 61 4.1 N 32 46 17 25 1015.7 1015.7 0.0

Other Formats:

Comma delimited format used in spreadsheet applications
http://www.bom.gov.au/fwo/IDV60801/IDV60801.94840.axf

JavaScript Object Notation format (JSON) in row-major order
http://www.bom.gov.au/fwo/IDV60801/IDV60801.94840.json